Time;durP1;ratioP1;P1;durP2;ratioP2;P2;SDS_P1;SDS_P2;PMS_P1;PMS_P2;Temp;Humidity;BMP_temperature;BMP_pressure;BME280_temperature;BME280_humidity;BME280_pressure;Samples;Min_cycle;Max_cycle;Signal;HPM_P1;HPM_P2
2023/08/28 00:01:01;;;;;;;268.35;106.32;;;;;;;;;;5072556;28;20428;-51
2023/08/28 00:03:27;;;;;;;264.10;99.35;;;;;;;;;;5072609;28;20196;-50
2023/08/28 00:05:53;;;;;;;265.43;100.93;;;;;;;;;;5072693;28;20170;-51
2023/08/28 00:08:19;;;;;;;267.57;106.70;;;;;;;;;;5073712;28;20412;-50
2023/08/28 00:10:44;;;;;;;268.23;105.80;;;;;;;;;;5071990;28;20408;-51
2023/08/28 00:13:10;;;;;;;262.13;98.33;;;;;;;;;;5072122;28;20285;-51
2023/08/28 00:15:36;;;;;;;261.57;93.13;;;;;;;;;;5072557;28;20479;-50
2023/08/28 00:18:02;;;;;;;262.83;98.53;;;;;;;;;;5072747;28;20753;-50
2023/08/28 00:20:29;;;;;;;264.38;101.20;;;;;;;;;;5072432;28;20396;-51
2023/08/28 00:22:55;;;;;;;269.00;106.65;;;;;;;;;;5072524;28;20189;-50
2023/08/28 00:25:21;;;;;;;263.67;98.47;;;;;;;;;;5072417;28;20172;-50
2023/08/28 00:27:47;;;;;;;270.60;109.88;;;;;;;;;;5072463;28;20537;-50
2023/08/28 00:30:13;;;;;;;265.73;101.40;;;;;;;;;;5072237;28;20173;-50
2023/08/28 00:32:39;;;;;;;262.00;98.20;;;;;;;;;;5072321;28;20436;-50
2023/08/28 00:35:05;;;;;;;261.10;95.80;;;;;;;;;;5072209;28;20955;-50
2023/08/28 00:37:31;;;;;;;264.08;98.18;;;;;;;;;;5072330;28;20211;-49
2023/08/28 00:39:57;;;;;;;265.75;102.07;;;;;;;;;;5072012;28;20251;-50
2023/08/28 00:42:23;;;;;;;261.77;95.67;;;;;;;;;;5072425;28;20237;-50
2023/08/28 00:44:50;;;;;;;265.67;100.85;;;;;;;;;;5072055;28;20396;-51
2023/08/28 00:47:16;;;;;;;267.33;100.32;;;;;;;;;;5072210;28;20248;-51
2023/08/28 00:49:42;;;;;;;268.55;100.85;;;;;;;;;;5070995;28;20656;-51
2023/08/28 00:52:08;;;;;;;273.05;112.30;;;;;;;;;;5071825;28;20268;-50
2023/08/28 00:54:34;;;;;;;266.15;99.50;;;;;;;;;;5071870;28;20281;-51
2023/08/28 00:57:02;;;;;;;266.40;102.82;;;;;;;;;;5072083;28;20158;-50
2023/08/28 00:59:28;;;;;;;267.65;103.18;;;;;;;;;;5071982;28;20173;-51
2023/08/28 01:01:54;;;;;;;278.60;105.60;;;;;;;;;;5071265;28;20166;-51
2023/08/28 01:04:20;;;;;;;266.67;108.83;;;;;;;;;;5071443;28;20220;-51
2023/08/28 01:07:05;;;;;;;259.67;98.50;;;;;;;;;;5071511;28;20418;-50
2023/08/28 01:09:43;;;;;;;263.02;101.28;;;;;;;;;;5071549;28;20495;-51
2023/08/28 01:12:17;;;;;;;268.55;104.22;;;;;;;;;;5071722;28;20440;-49
2023/08/28 01:14:59;;;;;;;258.70;96.45;;;;;;;;;;5071727;28;20280;-51
2023/08/28 01:17:26;;;;;;;255.93;94.18;;;;;;;;;;5071726;28;20162;-51
2023/08/28 01:19:53;;;;;;;267.42;103.53;;;;;;;;;;5071512;28;20162;-50
2023/08/28 01:22:22;;;;;;;260.95;97.47;;;;;;;;;;5071680;28;20192;-50
2023/08/28 01:24:51;;;;;;;267.77;103.70;;;;;;;;;;5071671;28;20253;-50
2023/08/28 01:27:18;;;;;;;263.52;101.32;;;;;;;;;;5071719;28;20181;-50
2023/08/28 01:29:44;;;;;;;267.63;103.38;;;;;;;;;;5071543;28;20178;-50
2023/08/28 01:32:10;;;;;;;264.85;97.55;;;;;;;;;;5071535;28;20199;-50
2023/08/28 01:34:38;;;;;;;261.87;97.57;;;;;;;;;;5071582;28;20236;-51
2023/08/28 01:37:13;;;;;;;263.08;102.88;;;;;;;;;;5071632;28;20400;-51
2023/08/28 01:39:42;;;;;;;262.23;98.05;;;;;;;;;;5071511;28;20169;-51
2023/08/28 01:42:08;;;;;;;265.90;100.57;;;;;;;;;;5071431;28;20172;-50
2023/08/28 01:44:35;;;;;;;267.40;104.78;;;;;;;;;;5071401;28;20175;-50
2023/08/28 01:47:01;;;;;;;265.10;100.80;;;;;;;;;;5071571;28;20211;-51
2023/08/28 01:49:28;;;;;;;267.05;104.68;;;;;;;;;;5071461;28;20172;-50
2023/08/28 01:51:54;;;;;;;263.67;100.93;;;;;;;;;;5079370;28;20177;-50
2023/08/28 01:54:20;;;;;;;263.47;97.63;;;;;;;;;;5091506;28;20215;-50
2023/08/28 01:56:46;;;;;;;266.77;104.93;;;;;;;;;;5091594;28;20399;-50
2023/08/28 01:59:12;;;;;;;262.42;99.05;;;;;;;;;;5091571;28;20391;-51
2023/08/28 02:01:38;;;;;;;260.47;96.43;;;;;;;;;;5092795;28;20161;-50
2023/08/28 02:04:04;;;;;;;262.77;101.27;;;;;;;;;;5095321;28;20423;-50
2023/08/28 02:06:30;;;;;;;256.20;92.70;;;;;;;;;;5095484;28;20887;-50
2023/08/28 02:08:56;;;;;;;262.43;100.50;;;;;;;;;;5095724;28;20174;-50
2023/08/28 02:11:22;;;;;;;264.20;101.57;;;;;;;;;;5095085;28;20486;-49
2023/08/28 02:13:48;;;;;;;267.63;107.23;;;;;;;;;;5095012;28;20446;-50
2023/08/28 02:16:14;;;;;;;260.87;99.27;;;;;;;;;;5095306;28;20426;-50
2023/08/28 02:18:40;;;;;;;259.97;94.87;;;;;;;;;;5095255;28;20883;-50
2023/08/28 02:21:06;;;;;;;259.73;95.23;;;;;;;;;;5094955;28;20421;-50
2023/08/28 02:23:32;;;;;;;261.05;98.32;;;;;;;;;;5095082;28;20422;-50
2023/08/28 02:25:58;;;;;;;264.13;101.27;;;;;;;;;;5095012;28;20169;-51
2023/08/28 02:28:25;;;;;;;265.98;105.35;;;;;;;;;;5095038;28;20899;-50
2023/08/28 02:30:51;;;;;;;267.02;105.55;;;;;;;;;;5094847;28;20165;-50
2023/08/28 02:33:17;;;;;;;266.93;106.70;;;;;;;;;;5094967;28;20199;-50
2023/08/28 02:35:43;;;;;;;271.40;113.50;;;;;;;;;;5094807;28;20485;-50
2023/08/28 02:38:10;;;;;;;268.77;109.97;;;;;;;;;;5094885;28;20164;-51
2023/08/28 02:40:37;;;;;;;262.85;99.35;;;;;;;;;;5094586;28;20307;-50
2023/08/28 02:43:05;;;;;;;268.95;110.28;;;;;;;;;;5094660;28;20186;-50
2023/08/28 02:45:31;;;;;;;268.50;110.88;;;;;;;;;;5094684;28;20575;-50
2023/08/28 02:47:57;;;;;;;269.55;111.82;;;;;;;;;;5094713;28;20541;-49
2023/08/28 02:50:23;;;;;;;259.77;96.40;;;;;;;;;;5094565;28;20649;-50
2023/08/28 02:52:49;;;;;;;268.63;109.13;;;;;;;;;;5078489;28;20420;-50
2023/08/28 02:55:15;;;;;;;264.93;102.97;;;;;;;;;;5074130;28;20489;-50
2023/08/28 02:57:41;;;;;;;268.10;105.93;;;;;;;;;;5074297;28;20465;-51
2023/08/28 03:00:08;;;;;;;258.50;92.80;;;;;;;;;;5073922;28;20442;-51
2023/08/28 03:02:33;;;;;;;261.75;96.93;;;;;;;;;;5074202;28;20419;-50
2023/08/28 03:04:59;;;;;;;262.40;101.30;;;;;;;;;;5074169;28;20177;-50
2023/08/28 03:07:25;;;;;;;266.80;104.73;;;;;;;;;;5074586;28;20408;-51
2023/08/28 03:09:51;;;;;;;269.20;107.83;;;;;;;;;;5073676;28;20401;-49
2023/08/28 03:12:17;;;;;;;263.23;98.27;;;;;;;;;;5073464;28;20424;-50
2023/08/28 03:14:43;;;;;;;268.90;110.63;;;;;;;;;;5073271;28;20550;-50
2023/08/28 03:17:09;;;;;;;275.73;107.23;;;;;;;;;;5073982;28;20404;-50
2023/08/28 03:19:35;;;;;;;272.97;110.13;;;;;;;;;;5073905;28;20400;-51
2023/08/28 03:22:01;;;;;;;269.60;100.77;;;;;;;;;;5073655;28;20888;-50
2023/08/28 03:24:27;;;;;;;268.70;101.50;;;;;;;;;;5073699;28;20407;-50
2023/08/28 03:26:53;;;;;;;270.43;105.10;;;;;;;;;;5074107;28;20911;-50
2023/08/28 03:29:19;;;;;;;267.97;104.73;;;;;;;;;;5073937;28;20909;-50
2023/08/28 03:31:45;;;;;;;266.97;100.60;;;;;;;;;;5073523;28;20907;-50
2023/08/28 03:34:11;;;;;;;270.43;102.80;;;;;;;;;;5073469;28;21001;-49
2023/08/28 03:36:37;;;;;;;272.30;112.37;;;;;;;;;;5073601;28;20427;-49
2023/08/28 03:39:03;;;;;;;267.83;101.47;;;;;;;;;;5073385;28;20401;-50
2023/08/28 03:41:28;;;;;;;268.77;106.80;;;;;;;;;;5073242;28;20411;-50
2023/08/28 03:43:54;;;;;;;266.97;102.20;;;;;;;;;;5073144;28;20463;-50
2023/08/28 03:46:20;;;;;;;272.70;108.63;;;;;;;;;;5073393;28;20411;-51
2023/08/28 03:48:46;;;;;;;260.93;96.80;;;;;;;;;;5073352;28;20178;-51
2023/08/28 03:51:12;;;;;;;330.07;196.60;;;;;;;;;;5075317;28;20461;-50
2023/08/28 03:53:38;;;;;;;262.63;97.47;;;;;;;;;;5093091;28;20448;-50
2023/08/28 03:56:04;;;;;;;261.30;100.03;;;;;;;;;;5093365;28;20868;-50
2023/08/28 03:58:31;;;;;;;263.53;100.13;;;;;;;;;;5093328;28;20395;-49
2023/08/28 04:00:57;;;;;;;263.30;98.82;;;;;;;;;;5093026;28;20395;-49
2023/08/28 04:03:23;;;;;;;266.23;103.07;;;;;;;;;;5093198;28;20181;-50
2023/08/28 04:05:49;;;;;;;292.83;137.80;;;;;;;;;;5093223;28;20391;-49
2023/08/28 04:08:15;;;;;;;265.90;99.33;;;;;;;;;;5092935;28;20911;-49
2023/08/28 04:10:42;;;;;;;268.10;106.43;;;;;;;;;;5092948;28;20404;-50
2023/08/28 04:13:08;;;;;;;266.67;99.68;;;;;;;;;;5093007;28;20185;-49
2023/08/28 04:15:34;;;;;;;266.85;102.30;;;;;;;;;;5092908;28;20193;-49
2023/08/28 04:18:00;;;;;;;262.45;95.75;;;;;;;;;;5093029;28;20237;-51
2023/08/28 04:20:26;;;;;;;265.87;96.93;;;;;;;;;;5092731;28;20249;-49
2023/08/28 04:22:52;;;;;;;276.03;113.10;;;;;;;;;;5092617;28;20789;-50
2023/08/28 04:25:18;;;;;;;271.27;106.33;;;;;;;;;;5092458;28;20411;-50
2023/08/28 04:27:44;;;;;;;266.57;97.97;;;;;;;;;;5092848;28;20402;-49
2023/08/28 04:30:10;;;;;;;276.33;113.70;;;;;;;;;;5092601;28;20820;-49
2023/08/28 04:32:36;;;;;;;272.38;107.47;;;;;;;;;;5092648;28;20819;-49
2023/08/28 04:35:02;;;;;;;268.20;99.28;;;;;;;;;;5092541;28;20280;-50
2023/08/28 04:37:28;;;;;;;270.27;101.22;;;;;;;;;;5092454;28;20157;-49
2023/08/28 04:39:54;;;;;;;274.38;109.93;;;;;;;;;;5092357;28;20172;-50
2023/08/28 04:42:20;;;;;;;273.30;106.33;;;;;;;;;;5086112;28;20195;-50
2023/08/28 04:44:47;;;;;;;269.43;106.97;;;;;;;;;;5071952;28;20435;-49
2023/08/28 04:47:13;;;;;;;266.60;101.65;;;;;;;;;;5072213;28;20494;-49
2023/08/28 04:49:39;;;;;;;276.08;114.78;;;;;;;;;;5072906;28;20226;-50
2023/08/28 04:52:05;;;;;;;275.15;113.95;;;;;;;;;;5071573;28;20194;-50
2023/08/28 04:54:32;;;;;;;269.67;107.85;;;;;;;;;;5071474;28;20213;-50
2023/08/28 04:56:58;;;;;;;270.48;105.75;;;;;;;;;;5071975;28;20181;-49
2023/08/28 04:59:25;;;;;;;281.53;118.17;;;;;;;;;;5072310;28;20174;-49
2023/08/28 05:01:51;;;;;;;277.33;119.70;;;;;;;;;;5072105;28;20408;-50
2023/08/28 05:04:17;;;;;;;273.40;111.03;;;;;;;;;;5071629;28;20199;-49
2023/08/28 05:06:43;;;;;;;267.90;104.70;;;;;;;;;;5071900;28;20474;-49
2023/08/28 05:09:12;;;;;;;270.57;108.63;;;;;;;;;;5070700;28;20225;-50
2023/08/28 05:11:38;;;;;;;270.08;110.72;;;;;;;;;;5071553;28;20969;-50
2023/08/28 05:14:04;;;;;;;268.55;107.53;;;;;;;;;;5071613;28;20230;-50
2023/08/28 05:16:30;;;;;;;273.33;109.90;;;;;;;;;;5072056;28;20217;-50
2023/08/28 05:18:57;;;;;;;275.13;114.43;;;;;;;;;;5071684;28;20410;-49
2023/08/28 05:21:23;;;;;;;278.80;120.18;;;;;;;;;;5071346;28;20435;-50
2023/08/28 05:23:49;;;;;;;273.93;115.60;;;;;;;;;;5071505;28;20201;-49
2023/08/28 05:26:15;;;;;;;271.70;111.70;;;;;;;;;;5070408;28;20838;-50
2023/08/28 05:28:41;;;;;;;273.02;111.38;;;;;;;;;;5071760;28;20401;-50
2023/08/28 05:31:08;;;;;;;272.83;112.50;;;;;;;;;;5071481;28;20247;-49
2023/08/28 05:33:35;;;;;;;273.73;113.82;;;;;;;;;;5071190;28;20439;-49
2023/08/28 05:36:01;;;;;;;271.65;112.03;;;;;;;;;;5072043;28;20249;-50
2023/08/28 05:38:27;;;;;;;272.67;115.80;;;;;;;;;;5075898;28;20307;-49
2023/08/28 05:40:54;;;;;;;273.47;118.57;;;;;;;;;;5075653;28;20681;-50
2023/08/28 05:43:22;;;;;;;275.35;118.35;;;;;;;;;;5072768;28;20926;-49
2023/08/28 05:45:48;;;;;;;277.23;124.53;;;;;;;;;;5075992;28;20181;-50
2023/08/28 05:48:14;;;;;;;270.73;109.10;;;;;;;;;;5075475;28;20173;-49
2023/08/28 05:50:41;;;;;;;269.13;109.50;;;;;;;;;;5075169;28;20186;-49
2023/08/28 05:53:07;;;;;;;270.67;114.20;;;;;;;;;;5075441;28;20747;-49
2023/08/28 05:55:33;;;;;;;268.03;106.07;;;;;;;;;;5075406;28;20235;-49
2023/08/28 05:57:59;;;;;;;278.67;127.33;;;;;;;;;;5074470;28;20744;-51
2023/08/28 06:00:26;;;;;;;276.63;118.60;;;;;;;;;;5073882;28;20884;-49
2023/08/28 06:02:53;;;;;;;275.05;119.78;;;;;;;;;;5073621;28;20586;-51
2023/08/28 06:05:19;;;;;;;278.13;121.63;;;;;;;;;;5073106;28;20220;-49
2023/08/28 06:07:44;;;;;;;273.30;116.15;;;;;;;;;;5073948;28;20503;-50
2023/08/28 06:10:12;;;;;;;273.93;117.53;;;;;;;;;;5073975;28;20670;-49
2023/08/28 06:12:38;;;;;;;281.90;123.43;;;;;;;;;;5073637;28;20428;-49
2023/08/28 06:15:05;;;;;;;277.07;121.83;;;;;;;;;;5074811;28;20199;-50
2023/08/28 06:17:30;;;;;;;275.25;118.50;;;;;;;;;;5074695;28;20404;-49
2023/08/28 06:19:56;;;;;;;274.70;122.10;;;;;;;;;;5074720;28;20184;-49
2023/08/28 06:22:22;;;;;;;271.27;119.23;;;;;;;;;;5073534;28;20428;-48
2023/08/28 06:24:52;;;;;;;271.93;115.37;;;;;;;;;;5074877;28;20415;-50
2023/08/28 06:27:19;;;;;;;277.65;124.57;;;;;;;;;;5074699;28;20416;-50
2023/08/28 06:29:45;;;;;;;285.73;127.13;;;;;;;;;;5073069;28;20210;-49
2023/08/28 06:32:12;;;;;;;284.53;120.67;;;;;;;;;;5074415;28;20202;-50
2023/08/28 06:34:39;;;;;;;267.17;117.82;;;;;;;;;;5074361;28;20459;-50
2023/08/28 06:37:05;;;;;;;270.85;120.60;;;;;;;;;;5071724;28;20704;-49
2023/08/28 06:39:31;;;;;;;275.13;128.57;;;;;;;;;;5074406;28;20178;-50
2023/08/28 06:41:57;;;;;;;273.98;128.73;;;;;;;;;;5072344;28;20432;-49
2023/08/28 06:44:23;;;;;;;272.90;124.67;;;;;;;;;;5073945;28;20552;-49
2023/08/28 06:46:49;;;;;;;264.52;112.78;;;;;;;;;;5074441;28;20756;-49
2023/08/28 06:49:15;;;;;;;272.07;124.47;;;;;;;;;;5074683;28;20224;-49
2023/08/28 06:51:41;;;;;;;269.57;122.20;;;;;;;;;;5074084;28;20430;-50
2023/08/28 06:54:07;;;;;;;266.63;120.07;;;;;;;;;;5074159;28;20449;-50
2023/08/28 06:56:34;;;;;;;273.75;127.90;;;;;;;;;;5074392;28;20508;-50
2023/08/28 06:59:00;;;;;;;270.73;116.90;;;;;;;;;;5074245;28;20572;-50
2023/08/28 07:01:26;;;;;;;273.23;129.65;;;;;;;;;;5072721;28;20840;-51
2023/08/28 07:03:52;;;;;;;273.87;129.90;;;;;;;;;;5073968;28;20204;-50
2023/08/28 07:06:18;;;;;;;276.20;136.37;;;;;;;;;;5074124;28;21197;-49
2023/08/28 07:08:44;;;;;;;274.80;129.40;;;;;;;;;;5074137;28;20405;-50
2023/08/28 07:11:10;;;;;;;275.33;129.20;;;;;;;;;;5073854;28;20169;-50
2023/08/28 07:13:36;;;;;;;277.03;127.00;;;;;;;;;;5073865;28;20277;-50
2023/08/28 07:16:03;;;;;;;273.63;128.20;;;;;;;;;;5073919;28;20409;-51
2023/08/28 07:18:30;;;;;;;285.43;139.97;;;;;;;;;;5073898;28;20477;-50
2023/08/28 07:20:57;;;;;;;278.77;132.27;;;;;;;;;;5073625;28;20896;-51
2023/08/28 07:23:25;;;;;;;281.63;135.17;;;;;;;;;;5073678;28;20433;-50
2023/08/28 07:25:52;;;;;;;286.30;146.27;;;;;;;;;;5073833;28;20395;-50
2023/08/28 07:28:19;;;;;;;294.17;155.70;;;;;;;;;;5073614;28;20767;-49
2023/08/28 07:30:47;;;;;;;293.40;158.33;;;;;;;;;;5073437;28;20392;-50
2023/08/28 07:33:14;;;;;;;295.67;172.13;;;;;;;;;;5073488;28;20419;-51
2023/08/28 07:35:44;;;;;;;295.77;165.73;;;;;;;;;;5073389;28;20479;-49
2023/08/28 07:38:10;;;;;;;297.03;176.87;;;;;;;;;;5073624;28;20175;-51
2023/08/28 07:40:36;;;;;;;294.23;165.13;;;;;;;;;;5073192;28;20395;-49
2023/08/28 07:43:02;;;;;;;297.67;176.60;;;;;;;;;;5073333;28;20784;-51
2023/08/28 07:45:28;;;;;;;307.37;190.73;;;;;;;;;;5073487;28;20392;-49
2023/08/28 07:47:55;;;;;;;299.50;185.93;;;;;;;;;;5073457;28;20388;-50
2023/08/28 07:50:21;;;;;;;301.57;194.47;;;;;;;;;;5073172;28;20409;-50
2023/08/28 07:52:47;;;;;;;302.47;197.97;;;;;;;;;;5073770;28;20801;-49
2023/08/28 07:55:13;;;;;;;306.20;204.20;;;;;;;;;;5072947;28;20443;-50
2023/08/28 07:57:39;;;;;;;305.83;203.40;;;;;;;;;;5073187;28;20385;-49
2023/08/28 08:00:07;;;;;;;305.10;205.97;;;;;;;;;;5072272;28;20449;-51
2023/08/28 08:02:33;;;;;;;306.90;206.97;;;;;;;;;;5072903;28;20419;-49
2023/08/28 08:04:59;;;;;;;309.83;211.50;;;;;;;;;;5072890;28;20788;-50
2023/08/28 08:07:25;;;;;;;303.60;195.93;;;;;;;;;;5072867;28;20408;-51
2023/08/28 08:09:51;;;;;;;314.57;216.30;;;;;;;;;;5072597;28;20483;-50
2023/08/28 08:12:17;;;;;;;307.53;212.23;;;;;;;;;;5072801;28;20429;-50
2023/08/28 08:14:43;;;;;;;315.27;206.37;;;;;;;;;;5072698;28;20460;-50
2023/08/28 08:17:09;;;;;;;307.87;204.73;;;;;;;;;;5072742;28;20480;-51
2023/08/28 08:19:35;;;;;;;310.10;213.60;;;;;;;;;;5072598;28;20426;-50
2023/08/28 08:22:04;;;;;;;310.37;211.83;;;;;;;;;;5072399;28;20437;-49
2023/08/28 08:24:30;;;;;;;307.47;216.27;;;;;;;;;;5072419;28;20397;-49
2023/08/28 08:26:57;;;;;;;310.33;222.87;;;;;;;;;;5072743;28;20465;-49
2023/08/28 08:29:24;;;;;;;315.77;224.97;;;;;;;;;;5072505;28;20408;-49
2023/08/28 08:31:51;;;;;;;294.13;187.63;;;;;;;;;;5072278;28;20441;-49
2023/08/28 08:34:18;;;;;;;294.80;190.70;;;;;;;;;;5072184;28;21037;-51
2023/08/28 08:36:44;;;;;;;294.10;185.17;;;;;;;;;;5072398;28;20442;-50
2023/08/28 08:39:10;;;;;;;289.43;176.37;;;;;;;;;;5072268;28;20400;-51
2023/08/28 08:41:39;;;;;;;291.73;176.53;;;;;;;;;;5072186;28;20521;-51
2023/08/28 08:44:05;;;;;;;298.97;191.23;;;;;;;;;;5072223;28;20422;-50
2023/08/28 08:46:34;;;;;;;287.47;168.83;;;;;;;;;;5071099;28;20469;-50
2023/08/28 08:49:00;;;;;;;294.67;182.17;;;;;;;;;;5072081;28;20475;-49
2023/08/28 08:51:30;;;;;;;288.43;169.20;;;;;;;;;;5075954;28;20432;-49
2023/08/28 08:54:31;;;;;;;297.27;191.00;;;;;;;;;;5092111;28;20419;-51
2023/08/28 08:57:02;;;;;;;298.33;192.27;;;;;;;;;;5080403;28;20438;-49
2023/08/28 08:59:29;;;;;;;297.90;183.57;;;;;;;;;;5092272;28;20399;-49
2023/08/28 09:01:55;;;;;;;289.60;179.23;;;;;;;;;;5091756;28;20399;-49
2023/08/28 09:04:21;;;;;;;298.17;202.93;;;;;;;;;;5092159;28;20544;-50
2023/08/28 09:06:49;;;;;;;291.47;184.23;;;;;;;;;;5092309;28;20401;-49
2023/08/28 09:09:15;;;;;;;284.57;168.57;;;;;;;;;;5092231;28;20399;-49
2023/08/28 09:11:45;;;;;;;283.10;159.30;;;;;;;;;;5091023;28;20402;-49
2023/08/28 09:14:11;;;;;;;275.90;143.33;;;;;;;;;;5091880;28;20600;-48
2023/08/28 09:16:36;;;;;;;286.60;159.20;;;;;;;;;;5091734;28;20920;-49
2023/08/28 09:19:02;;;;;;;279.27;151.87;;;;;;;;;;5091936;28;20400;-49
2023/08/28 09:21:34;;;;;;;276.30;144.03;;;;;;;;;;5091785;28;20404;-49
2023/08/28 09:24:00;;;;;;;274.93;144.57;;;;;;;;;;5091724;28;21097;-51
2023/08/28 09:26:26;;;;;;;279.23;149.93;;;;;;;;;;5091884;28;20613;-49
2023/08/28 09:28:59;;;;;;;279.90;153.27;;;;;;;;;;5091909;28;20392;-51
2023/08/28 09:31:35;;;;;;;277.67;144.10;;;;;;;;;;5091650;28;20427;-50
2023/08/28 09:34:02;;;;;;;273.97;137.93;;;;;;;;;;5091645;28;20419;-50
2023/08/28 09:36:28;;;;;;;278.27;146.93;;;;;;;;;;5091830;28;20805;-49
2023/08/28 09:39:04;;;;;;;276.17;144.93;;;;;;;;;;5091849;28;20429;-48
2023/08/28 09:41:38;;;;;;;284.73;155.17;;;;;;;;;;5091471;28;20395;-51
2023/08/28 09:44:04;;;;;;;278.23;148.33;;;;;;;;;;5091596;28;20430;-49
2023/08/28 09:46:30;;;;;;;277.77;145.17;;;;;;;;;;5091681;28;20404;-49
2023/08/28 09:48:58;;;;;;;276.33;145.67;;;;;;;;;;5091856;28;20415;-50
2023/08/28 09:51:38;;;;;;;278.57;147.50;;;;;;;;;;5087649;28;20425;-50
2023/08/28 09:54:06;;;;;;;277.70;146.80;;;;;;;;;;5070188;28;20548;-50
2023/08/28 09:56:32;;;;;;;270.43;135.07;;;;;;;;;;5071434;28;20416;-50
2023/08/28 09:58:58;;;;;;;278.60;146.60;;;;;;;;;;5071455;28;20411;-50
2023/08/28 10:01:26;;;;;;;270.13;135.10;;;;;;;;;;5071362;28;20733;-50
2023/08/28 10:03:52;;;;;;;270.03;136.07;;;;;;;;;;5071072;28;20433;-50
2023/08/28 10:06:18;;;;;;;272.37;138.83;;;;;;;;;;5071287;28;20502;-51
2023/08/28 10:08:46;;;;;;;277.57;142.73;;;;;;;;;;5071187;28;20495;-50
2023/08/28 10:11:12;;;;;;;270.50;132.13;;;;;;;;;;5071032;28;20981;-50
2023/08/28 10:13:38;;;;;;;276.67;139.73;;;;;;;;;;5071167;28;20421;-50
2023/08/28 10:16:05;;;;;;;269.47;132.73;;;;;;;;;;5071092;28;20456;-50
2023/08/28 10:18:36;;;;;;;278.23;140.47;;;;;;;;;;5071201;28;20437;-50
2023/08/28 10:21:02;;;;;;;284.80;146.13;;;;;;;;;;5070380;28;20776;-50
2023/08/28 10:23:29;;;;;;;278.47;141.57;;;;;;;;;;5073543;28;20413;-50
2023/08/28 10:25:57;;;;;;;272.97;133.60;;;;;;;;;;5074909;28;20400;-50
2023/08/28 10:28:25;;;;;;;272.30;134.93;;;;;;;;;;5074931;28;20404;-50
2023/08/28 10:30:53;;;;;;;272.57;133.57;;;;;;;;;;5074715;28;20432;-50
2023/08/28 10:33:21;;;;;;;276.67;140.53;;;;;;;;;;5074485;28;20522;-50
2023/08/28 10:35:51;;;;;;;272.87;133.20;;;;;;;;;;5074507;28;20460;-49
2023/08/28 10:38:19;;;;;;;268.67;127.17;;;;;;;;;;5074704;28;20806;-50
2023/08/28 10:40:45;;;;;;;271.23;138.73;;;;;;;;;;5074484;28;20403;-50
2023/08/28 10:43:13;;;;;;;272.10;137.93;;;;;;;;;;5074336;28;20448;-50
2023/08/28 10:45:40;;;;;;;268.60;128.87;;;;;;;;;;5074699;28;20401;-51
2023/08/28 10:48:06;;;;;;;273.20;137.60;;;;;;;;;;5075421;28;20966;-52
2023/08/28 10:50:37;;;;;;;269.05;132.75;;;;;;;;;;5075079;28;20424;-52
2023/08/28 10:53:04;;;;;;;270.37;139.13;;;;;;;;;;5092628;28;20270;-52
2023/08/28 10:55:30;;;;;;;275.27;146.17;;;;;;;;;;5095343;28;20451;-51
2023/08/28 10:58:00;;;;;;;272.07;137.03;;;;;;;;;;5095306;28;20407;-51
2023/08/28 11:00:28;;;;;;;279.37;150.40;;;;;;;;;;5094939;28;20445;-50
2023/08/28 11:03:08;;;;;;;269.70;135.77;;;;;;;;;;5095350;28;20416;-52
2023/08/28 11:05:36;;;;;;;274.07;145.17;;;;;;;;;;5095074;28;20529;-52
2023/08/28 11:08:04;;;;;;;267.77;130.87;;;;;;;;;;5095194;28;20400;-52
2023/08/28 11:10:30;;;;;;;267.53;131.77;;;;;;;;;;5094982;28;20408;-51
2023/08/28 11:13:02;;;;;;;273.53;145.60;;;;;;;;;;5095277;28;20428;-52
2023/08/28 11:15:31;;;;;;;272.27;146.40;;;;;;;;;;5094706;28;20451;-51
2023/08/28 11:18:13;;;;;;;277.37;150.57;;;;;;;;;;5094880;28;20785;-50
2023/08/28 11:20:40;;;;;;;273.00;145.37;;;;;;;;;;5094715;28;20537;-50
2023/08/28 11:23:06;;;;;;;272.00;141.73;;;;;;;;;;5094521;28;20482;-52
2023/08/28 11:25:37;;;;;;;283.23;169.00;;;;;;;;;;5095265;28;20900;-51
2023/08/28 11:28:03;;;;;;;288.20;170.07;;;;;;;;;;5095582;28;20408;-52
2023/08/28 11:30:31;;;;;;;292.97;186.60;;;;;;;;;;5094858;28;20826;-52
2023/08/28 11:32:57;;;;;;;294.30;188.10;;;;;;;;;;5094908;28;20490;-52
2023/08/28 11:35:23;;;;;;;286.77;172.87;;;;;;;;;;5093497;28;20550;-52
2023/08/28 11:38:00;;;;;;;286.83;174.73;;;;;;;;;;5095054;28;20406;-51
2023/08/28 11:40:27;;;;;;;278.87;157.00;;;;;;;;;;5094292;28;20432;-51
2023/08/28 11:43:06;;;;;;;282.77;161.70;;;;;;;;;;5093577;28;20678;-50
2023/08/28 11:45:32;;;;;;;277.30;149.93;;;;;;;;;;5093544;28;20438;-51
2023/08/28 11:48:06;;;;;;;274.97;148.17;;;;;;;;;;5093976;28;20403;-51
2023/08/28 11:50:32;;;;;;;273.60;144.10;;;;;;;;;;5093327;28;20508;-49
2023/08/28 11:52:58;;;;;;;271.13;139.37;;;;;;;;;;5076198;28;20433;-49
2023/08/28 11:55:24;;;;;;;275.37;145.47;;;;;;;;;;5073111;28;20547;-49
2023/08/28 11:57:50;;;;;;;279.67;146.47;;;;;;;;;;5073122;28;20393;-49
2023/08/28 12:00:17;;;;;;;278.00;147.40;;;;;;;;;;5072830;28;20404;-50
2023/08/28 12:02:44;;;;;;;275.87;148.23;;;;;;;;;;5072891;28;20923;-50
2023/08/28 12:05:10;;;;;;;271.13;137.77;;;;;;;;;;5073109;28;20865;-49
2023/08/28 12:07:36;;;;;;;272.23;135.43;;;;;;;;;;5073030;28;20401;-48
2023/08/28 12:10:03;;;;;;;279.37;148.97;;;;;;;;;;5072685;28;20398;-50
2023/08/28 12:12:31;;;;;;;280.17;149.43;;;;;;;;;;5072800;28;20475;-48
2023/08/28 12:14:58;;;;;;;277.27;147.40;;;;;;;;;;5072508;28;20448;-48
2023/08/28 12:17:28;;;;;;;273.50;136.77;;;;;;;;;;5072710;28;20529;-50
2023/08/28 12:19:54;;;;;;;277.00;141.53;;;;;;;;;;5072530;28;20416;-48
2023/08/28 12:22:21;;;;;;;276.63;145.00;;;;;;;;;;5072837;28;20807;-48
2023/08/28 12:24:48;;;;;;;274.37;142.97;;;;;;;;;;5072672;28;20417;-50
2023/08/28 12:27:15;;;;;;;278.77;152.03;;;;;;;;;;5072599;28;20468;-50
2023/08/28 12:29:41;;;;;;;286.47;159.30;;;;;;;;;;5072157;28;20453;-49
2023/08/28 12:32:17;;;;;;;275.57;145.67;;;;;;;;;;5072489;28;20895;-50
2023/08/28 12:34:44;;;;;;;282.70;152.97;;;;;;;;;;5072345;28;20513;-48
2023/08/28 12:37:11;;;;;;;275.87;143.27;;;;;;;;;;5072494;28;20413;-50
2023/08/28 12:39:45;;;;;;;278.07;146.30;;;;;;;;;;5072298;28;20934;-51
2023/08/28 12:42:12;;;;;;;283.47;154.07;;;;;;;;;;5071994;28;20407;-50
2023/08/28 12:44:39;;;;;;;277.80;154.40;;;;;;;;;;5071220;28;20411;-50
2023/08/28 12:47:05;;;;;;;283.57;159.27;;;;;;;;;;5072237;28;20404;-50
2023/08/28 12:49:32;;;;;;;279.27;149.07;;;;;;;;;;5072115;28;20511;-49
2023/08/28 12:51:59;;;;;;;278.03;144.03;;;;;;;;;;5080338;28;20830;-49
2023/08/28 12:54:25;;;;;;;282.97;156.63;;;;;;;;;;5092156;28;20508;-50
2023/08/28 12:56:52;;;;;;;281.27;154.53;;;;;;;;;;5092160;28;20404;-48
2023/08/28 12:59:25;;;;;;;275.30;148.63;;;;;;;;;;5092178;28;20429;-49
2023/08/28 13:01:51;;;;;;;273.80;144.70;;;;;;;;;;5092011;28;20395;-49
2023/08/28 13:04:18;;;;;;;272.37;145.20;;;;;;;;;;5092090;28;20465;-49
2023/08/28 13:06:43;;;;;;;275.77;147.00;;;;;;;;;;5092270;28;20425;-50
2023/08/28 13:09:09;;;;;;;280.83;157.53;;;;;;;;;;5092028;28;20899;-49
2023/08/28 13:11:35;;;;;;;274.63;148.83;;;;;;;;;;5091809;28;20892;-50
2023/08/28 13:14:03;;;;;;;273.13;144.77;;;;;;;;;;5091800;28;20442;-51
2023/08/28 13:16:30;;;;;;;268.83;136.43;;;;;;;;;;5091942;28;20427;-49
2023/08/28 13:18:56;;;;;;;270.37;137.67;;;;;;;;;;5092314;28;20785;-51
2023/08/28 13:21:22;;;;;;;270.27;138.43;;;;;;;;;;5092155;28;20398;-50
2023/08/28 13:23:49;;;;;;;275.20;146.07;;;;;;;;;;5091709;28;20424;-52
2023/08/28 13:26:16;;;;;;;276.73;151.87;;;;;;;;;;5092956;28;20482;-51
2023/08/28 13:28:42;;;;;;;268.43;133.40;;;;;;;;;;5093202;28;20399;-52
2023/08/28 13:31:08;;;;;;;269.40;138.87;;;;;;;;;;5093191;28;20404;-52
2023/08/28 13:33:34;;;;;;;278.40;151.57;;;;;;;;;;5093357;28;20430;-52
2023/08/28 13:36:02;;;;;;;273.07;142.77;;;;;;;;;;5092979;28;20455;-52
2023/08/28 13:38:28;;;;;;;271.83;141.60;;;;;;;;;;5093666;28;20403;-52
2023/08/28 13:40:54;;;;;;;272.60;142.23;;;;;;;;;;5092267;28;20406;-50
2023/08/28 13:43:20;;;;;;;272.67;137.50;;;;;;;;;;5091647;28;20915;-50
2023/08/28 13:45:50;;;;;;;268.97;137.60;;;;;;;;;;5091635;28;20748;-50
2023/08/28 13:48:16;;;;;;;271.50;145.83;;;;;;;;;;5091697;28;20404;-49
2023/08/28 13:50:43;;;;;;;270.30;140.33;;;;;;;;;;5091313;28;20433;-50
2023/08/28 13:53:09;;;;;;;269.67;139.67;;;;;;;;;;5072939;28;20447;-49